createdAt,value
2023-05-21T00:00:12.605Z,73.73
2023-05-21T00:10:34.388Z,78.35
2023-05-21T00:20:56.235Z,80.29
2023-05-21T00:31:19.198Z,76.04
2023-05-21T00:41:43.044Z,77.32
2023-05-21T00:52:05.522Z,79.98
2023-05-21T01:02:27.463Z,85.46
2023-05-21T01:12:50.956Z,79.70
2023-05-21T01:23:13.338Z,82.63
2023-05-21T01:33:45.447Z,79.24
2023-05-21T01:44:09.142Z,80.61
2023-05-21T01:54:30.988Z,83.60
2023-05-21T02:04:52.817Z,84.80
2023-05-21T02:15:14.808Z,80.85
2023-05-21T02:25:37.117Z,82.04
2023-05-21T02:35:59.081Z,87.80
2023-05-21T02:46:21.078Z,83.89
2023-05-21T02:56:43.030Z,80.27
2023-05-21T03:07:05.704Z,85.32
2023-05-21T03:17:27.468Z,88.86
2023-05-21T03:27:49.361Z,82.76
2023-05-21T03:38:11.194Z,83.74
2023-05-21T03:48:32.977Z,89.92
2023-05-21T03:58:54.794Z,86.02
2023-05-21T04:09:16.879Z,88.76
2023-05-21T04:19:38.932Z,90.95
2023-05-21T04:30:00.871Z,88.91
2023-05-21T04:40:24.644Z,88.32
2023-05-21T04:50:46.773Z,91.66
2023-05-21T05:01:09.083Z,87.71
2023-05-21T05:11:31.072Z,89.95
2023-05-21T05:21:52.958Z,93.46
2023-05-21T05:32:14.874Z,84.17
2023-05-21T05:42:36.775Z,90.51
2023-05-21T05:52:58.690Z,88.55
2023-05-21T06:03:20.625Z,90.87
2023-05-21T06:13:22.218Z,89.96
2023-05-21T06:23:23.732Z,87.88
2023-05-21T06:33:27.278Z,85.54
2023-05-21T06:43:28.924Z,88.82
2023-05-21T06:53:30.420Z,84.66
2023-05-21T07:03:32.244Z,87.36
2023-05-21T07:13:35.796Z,84.05
2023-05-21T07:31:08.427Z,84.53
2023-05-21T07:41:28.493Z,83.09
2023-05-21T07:52:08.613Z,81.87
2023-05-21T08:02:49.646Z,80.48
2023-05-21T08:13:30.302Z,77.92
2023-05-21T08:24:10.628Z,77.98
2023-05-21T08:34:53.232Z,76.37
2023-05-21T08:45:40.562Z,75.04
2023-05-21T08:56:21.404Z,73.87
2023-05-21T09:07:03.215Z,73.71
2023-05-21T09:17:48.150Z,73.58
2023-05-21T09:28:29.553Z,72.12
2023-05-21T09:39:16.296Z,72.33
2023-05-21T09:50:03.415Z,70.37
2023-05-21T10:00:45.632Z,70.79
2023-05-21T10:11:27.474Z,70.91
2023-05-21T10:22:09.307Z,71.77
2023-05-21T10:32:50.377Z,69.69
2023-05-21T10:44:02.486Z,70.09
2023-05-21T10:54:48.748Z,69.73
2023-05-21T11:05:09.156Z,69.83
2023-05-21T11:15:29.695Z,69.33
2023-05-21T11:26:02.267Z,69.90
2023-05-21T11:36:22.819Z,70.05
2023-05-21T11:46:43.565Z,69.19
2023-05-21T11:57:07.987Z,69.15
2023-05-21T12:07:31.639Z,69.41
2023-05-21T12:17:53.288Z,68.61
2023-05-21T12:28:13.818Z,68.00
2023-05-21T12:38:34.596Z,68.70
2023-05-21T12:48:58.196Z,68.73
2023-05-21T12:59:18.376Z,68.36
2023-05-21T13:09:38.620Z,68.37
2023-05-21T13:20:20.575Z,68.34
2023-05-21T13:30:40.963Z,66.13
2023-05-21T13:41:21.562Z,66.63
2023-05-21T13:51:42.178Z,66.55
2023-05-21T14:02:02.428Z,67.25
2023-05-21T14:12:22.821Z,66.45
2023-05-21T14:22:43.360Z,66.98
2023-05-21T14:33:03.593Z,66.96
2023-05-21T14:43:24.058Z,66.40
2023-05-21T14:53:44.024Z,66.75
2023-05-21T15:04:24.530Z,65.68
2023-05-21T15:15:06.323Z,65.08
2023-05-21T15:25:26.389Z,66.87
2023-05-21T15:35:46.736Z,66.26
2023-05-21T15:46:07.348Z,66.63
2023-05-21T15:56:27.887Z,66.31
2023-05-21T16:06:48.585Z,66.18
2023-05-21T16:17:09.058Z,65.41
2023-05-21T16:27:29.758Z,65.57
2023-05-21T16:37:53.377Z,66.06
2023-05-21T16:48:35.525Z,66.57
2023-05-21T16:58:57.387Z,65.62
2023-05-21T17:09:18.827Z,65.75
2023-05-21T17:19:39.429Z,65.54
2023-05-21T17:29:59.772Z,66.13
2023-05-21T17:40:20.378Z,66.93
2023-05-21T17:51:01.092Z,67.22
2023-05-21T18:01:41.728Z,68.02
2023-05-21T18:12:22.565Z,68.30
2023-05-21T18:33:43.398Z,69.30
2023-05-21T18:44:24.323Z,69.87
2023-05-21T18:55:06.632Z,70.99
2023-05-21T19:05:47.285Z,71.25
2023-05-21T19:16:27.627Z,71.50
2023-05-21T19:27:08.258Z,73.03
2023-05-21T19:37:48.666Z,72.11
2023-05-21T19:48:29.456Z,73.01
2023-05-21T19:59:11.480Z,72.06
2023-05-21T20:09:52.340Z,70.40
2023-05-21T20:20:34.552Z,70.66
2023-05-21T20:31:15.177Z,72.57
2023-05-21T20:41:56.198Z,73.21
2023-05-21T20:52:36.811Z,75.55
2023-05-21T21:03:18.440Z,73.76
2023-05-21T21:13:59.369Z,76.17
2023-05-21T21:24:40.035Z,81.92
2023-05-21T21:35:20.888Z,89.27
2023-05-21T21:46:01.458Z,91.80
2023-05-21T21:56:42.469Z,95.28
2023-05-21T22:07:23.677Z,95.09
2023-05-21T22:18:04.903Z,95.24
2023-05-21T22:28:45.056Z,98.73
2023-05-21T22:39:25.743Z,91.77
2023-05-21T22:50:08.112Z,88.33
2023-05-21T23:00:48.577Z,87.98
2023-05-21T23:11:29.368Z,86.95
2023-05-21T23:22:09.830Z,93.11
2023-05-21T23:32:50.851Z,92.37
2023-05-21T23:43:31.607Z,89.78
2023-05-21T23:54:12.128Z,89.66
